createdAt,value
2022-08-17T00:01:30.270Z,25.17
2022-08-17T00:04:10.742Z,25.16
2022-08-17T00:06:38.560Z,25.13
2022-08-17T00:09:05.617Z,25.11
2022-08-17T00:11:38.816Z,25.07
2022-08-17T00:14:08.207Z,25.06
2022-08-17T00:16:57.093Z,25.05
2022-08-17T00:19:25.637Z,25.06
2022-08-17T00:22:31.890Z,25.03
2022-08-17T00:24:42.775Z,25.03
2022-08-17T00:27:09.177Z,25.00
2022-08-17T00:29:36.272Z,24.97
2022-08-17T00:33:14.244Z,24.96
2022-08-17T00:34:49.907Z,24.94
2022-08-17T00:37:16.819Z,24.93
2022-08-17T00:39:43.727Z,24.89
2022-08-17T00:42:18.454Z,24.87
2022-08-17T00:44:45.853Z,24.86
2022-08-17T00:47:12.422Z,24.84
2022-08-17T00:49:38.806Z,24.80
2022-08-17T00:52:15.204Z,24.79
2022-08-17T00:54:44.686Z,24.77
2022-08-17T00:57:17.678Z,24.78
2022-08-17T01:00:02.612Z,24.77
2022-08-17T01:02:40.419Z,24.74
2022-08-17T01:05:14.894Z,24.70
2022-08-17T01:07:42.802Z,24.68
2022-08-17T01:10:58.157Z,24.63
2022-08-17T01:13:02.545Z,24.64
2022-08-17T01:15:31.597Z,24.60
2022-08-17T01:17:58.109Z,24.59
2022-08-17T01:20:25.050Z,24.56
2022-08-17T01:22:52.074Z,24.54
2022-08-17T01:25:20.583Z,24.52
2022-08-17T01:27:48.659Z,24.51
2022-08-17T01:30:58.639Z,24.49
2022-08-17T01:33:04.185Z,24.46
2022-08-17T01:35:30.832Z,24.44
2022-08-17T01:37:57.314Z,24.41
2022-08-17T01:40:32.786Z,24.37
2022-08-17T01:43:05.816Z,24.35
2022-08-17T01:45:34.232Z,24.34
2022-08-17T01:48:00.981Z,24.31
2022-08-17T01:50:31.872Z,24.29
2022-08-17T01:53:02.965Z,24.27
2022-08-17T01:55:38.027Z,24.24
2022-08-17T01:58:08.816Z,24.21
2022-08-17T02:00:46.687Z,24.20
2022-08-17T02:03:25.308Z,24.20
2022-08-17T02:05:53.176Z,24.17
2022-08-17T02:08:21.634Z,24.16
2022-08-17T02:11:11.519Z,24.16
2022-08-17T02:13:38.734Z,24.15
2022-08-17T02:16:05.790Z,24.13
2022-08-17T02:18:32.349Z,24.09
2022-08-17T02:20:59.211Z,24.06
2022-08-17T02:23:29.173Z,24.05
2022-08-17T02:25:57.728Z,24.04
2022-08-17T02:28:24.607Z,24.02
2022-08-17T02:31:01.818Z,24.01
2022-08-17T02:33:41.820Z,24.01
2022-08-17T02:36:10.056Z,24.00
2022-08-17T02:38:37.587Z,23.99
2022-08-17T02:41:05.006Z,23.98
2022-08-17T02:43:32.292Z,23.95
2022-08-17T02:45:58.683Z,23.92
2022-08-17T02:48:30.764Z,23.88
2022-08-17T02:51:00.020Z,23.86
2022-08-17T02:53:27.285Z,23.82
2022-08-17T02:55:53.687Z,23.80
2022-08-17T02:58:34.806Z,23.78
2022-08-17T03:01:05.182Z,23.77
2022-08-17T03:03:32.082Z,23.76
2022-08-17T03:05:58.602Z,23.76
2022-08-17T03:08:25.414Z,23.74
2022-08-17T03:10:52.265Z,23.71
2022-08-17T03:13:18.903Z,23.70
2022-08-17T03:15:46.551Z,23.66
2022-08-17T03:18:24.326Z,23.67
2022-08-17T03:20:53.244Z,23.66
2022-08-17T03:23:24.150Z,23.65
2022-08-17T03:25:52.997Z,23.64
2022-08-17T03:28:21.172Z,23.62
2022-08-17T03:30:47.791Z,23.60
2022-08-17T03:33:14.572Z,23.57
2022-08-17T03:35:41.871Z,23.56
2022-08-17T03:38:12.358Z,23.53
2022-08-17T03:40:56.674Z,23.53
2022-08-17T03:43:31.361Z,23.52
2022-08-17T03:46:34.030Z,23.50
2022-08-17T03:49:24.057Z,23.48
2022-08-17T03:52:09.420Z,23.47
2022-08-17T03:54:54.883Z,23.45
2022-08-17T03:57:21.357Z,23.43
2022-08-17T03:59:47.914Z,23.40
2022-08-17T04:02:21.421Z,23.37
2022-08-17T04:04:52.066Z,23.37
2022-08-17T04:07:20.716Z,23.37
2022-08-17T04:09:47.181Z,23.33
2022-08-17T04:12:16.164Z,23.32
2022-08-17T04:14:51.920Z,23.32
2022-08-17T04:17:20.428Z,23.32
2022-08-17T04:19:46.959Z,23.32
2022-08-17T04:22:32.089Z,23.30
2022-08-17T04:25:17.523Z,23.33
2022-08-17T04:27:44.001Z,23.32
2022-08-17T04:30:11.295Z,23.32
2022-08-17T04:33:12.545Z,23.31
2022-08-17T04:35:43.553Z,23.32
2022-08-17T04:38:13.116Z,23.33
2022-08-17T04:40:58.546Z,23.33
2022-08-17T04:43:26.903Z,23.35
2022-08-17T04:45:57.247Z,23.34
2022-08-17T04:48:36.226Z,23.35
2022-08-17T04:51:16.833Z,23.35
2022-08-17T04:53:45.737Z,23.39
2022-08-17T04:56:20.625Z,23.41
2022-08-17T04:58:50.472Z,23.42
2022-08-17T05:01:23.290Z,23.44
2022-08-17T05:03:50.202Z,23.45
2022-08-17T05:06:16.666Z,23.48
2022-08-17T05:08:43.166Z,23.49
2022-08-17T05:11:10.107Z,23.52
2022-08-17T05:13:36.660Z,23.55
2022-08-17T05:16:05.499Z,23.59
2022-08-17T05:18:32.807Z,23.62
2022-08-17T05:20:59.213Z,23.64
2022-08-17T05:23:27.185Z,23.66
2022-08-17T05:26:04.305Z,23.70
2022-08-17T05:28:33.530Z,23.74
2022-08-17T05:31:03.300Z,23.76
2022-08-17T05:33:35.971Z,23.79
2022-08-17T05:36:04.705Z,23.82
2022-08-17T05:38:32.380Z,23.84
2022-08-17T05:41:03.985Z,23.87
2022-08-17T05:43:35.883Z,23.90
2022-08-17T05:46:07.794Z,23.90
2022-08-17T05:48:41.203Z,23.93
2022-08-17T05:51:29.540Z,23.94
2022-08-17T05:54:17.692Z,23.97
2022-08-17T05:57:12.418Z,24.01
2022-08-17T06:00:10.841Z,24.05
2022-08-17T06:02:53.281Z,24.10
2022-08-17T06:05:46.023Z,24.13
2022-08-17T06:08:27.308Z,24.18
2022-08-17T06:11:20.076Z,24.21
2022-08-17T06:14:07.044Z,24.27
2022-08-17T06:16:41.332Z,24.32
2022-08-17T06:19:35.915Z,24.37
2022-08-17T06:22:05.650Z,24.44
2022-08-17T06:24:47.577Z,24.48
2022-08-17T06:27:14.056Z,24.56
2022-08-17T06:29:52.428Z,24.60
2022-08-17T06:32:19.068Z,24.68
2022-08-17T06:34:46.676Z,24.73
2022-08-17T06:38:36.920Z,24.77
2022-08-17T06:41:02.056Z,24.87
2022-08-17T06:43:48.163Z,24.92
2022-08-17T06:46:25.656Z,25.00
2022-08-17T06:49:07.843Z,25.04
2022-08-17T06:51:43.179Z,25.11
2022-08-17T06:54:25.857Z,25.15
2022-08-17T06:57:02.268Z,25.21
2022-08-17T06:59:47.190Z,25.29
2022-08-17T07:02:52.040Z,25.35
2022-08-17T07:05:36.640Z,25.43
2022-08-17T07:08:26.408Z,25.43
2022-08-17T07:11:01.265Z,25.53
2022-08-17T07:13:51.078Z,25.62
2022-08-17T07:16:27.844Z,25.74
2022-08-17T07:18:56.854Z,25.81
2022-08-17T07:21:57.116Z,25.85
2022-08-17T07:24:47.191Z,25.95
2022-08-17T07:27:27.569Z,26.08
2022-08-17T07:30:18.479Z,26.18
2022-08-17T07:32:50.761Z,26.25
2022-08-17T07:35:37.573Z,26.31
2022-08-17T07:38:26.323Z,26.41
2022-08-17T07:41:02.662Z,26.52
2022-08-17T07:43:36.705Z,26.62
2022-08-17T07:46:41.679Z,26.73
2022-08-17T07:49:12.487Z,26.87
2022-08-17T07:51:40.977Z,26.98
2022-08-17T07:54:22.277Z,27.09
2022-08-17T07:56:54.488Z,27.21
2022-08-17T07:59:34.028Z,27.32
2022-08-17T08:02:02.286Z,27.43
2022-08-17T08:07:21.729Z,27.62
2022-08-17T08:10:05.933Z,27.63
2022-08-17T08:12:44.742Z,27.69
2022-08-17T08:15:22.285Z,27.76
2022-08-17T08:17:55.469Z,27.83
2022-08-17T08:20:53.443Z,27.87
2022-08-17T08:23:48.663Z,27.98
2022-08-17T08:26:26.296Z,28.09
2022-08-17T08:29:20.396Z,28.18
2022-08-17T08:32:03.795Z,28.27
2022-08-17T08:35:01.923Z,28.36
2022-08-17T08:37:42.925Z,28.42
2022-08-17T08:40:33.345Z,28.47
2022-08-17T08:43:16.624Z,28.52
2022-08-17T08:46:04.696Z,28.56
2022-08-17T08:49:10.271Z,28.59
2022-08-17T08:51:52.577Z,28.63
2022-08-17T08:54:56.828Z,28.61
2022-08-17T08:57:34.125Z,28.62
2022-08-17T09:00:14.837Z,28.59
2022-08-17T09:02:59.685Z,28.58
2022-08-17T09:05:53.470Z,28.62
2022-08-17T09:08:19.939Z,28.71
2022-08-17T09:11:08.250Z,28.75
2022-08-17T09:14:07.636Z,28.87
2022-08-17T09:17:05.753Z,28.94
2022-08-17T09:19:40.950Z,28.96
2022-08-17T09:22:42.627Z,29.02
2022-08-17T09:25:15.715Z,29.17
2022-08-17T09:27:52.353Z,29.32
2022-08-17T09:30:19.987Z,29.48
2022-08-17T09:32:55.163Z,29.67
2022-08-17T09:35:32.946Z,29.83
2022-08-17T09:38:32.378Z,30.03
2022-08-17T09:40:59.086Z,30.21
2022-08-17T09:43:54.354Z,30.29
2022-08-17T09:46:38.733Z,30.43
2022-08-17T09:49:14.988Z,30.63
2022-08-17T09:51:48.918Z,30.73
2022-08-17T09:54:42.019Z,30.79
2022-08-17T09:57:30.273Z,30.90
2022-08-17T10:00:32.572Z,30.98
2022-08-17T10:03:25.246Z,31.16
2022-08-17T10:05:59.323Z,31.39
2022-08-17T10:08:54.733Z,31.53
2022-08-17T10:11:48.293Z,31.70
2022-08-17T10:14:38.002Z,31.83
2022-08-17T10:17:30.042Z,32.02
2022-08-17T10:20:09.109Z,32.21
2022-08-17T10:23:11.627Z,32.46
2022-08-17T10:26:10.068Z,32.83
2022-08-17T10:28:47.977Z,33.26
2022-08-17T10:31:34.914Z,33.64
2022-08-17T10:34:56.375Z,34.00
2022-08-17T10:37:46.560Z,33.95
2022-08-17T10:40:46.608Z,33.88
2022-08-17T10:43:29.888Z,34.35
2022-08-17T10:46:30.890Z,34.83
2022-08-17T10:49:38.361Z,35.18
2022-08-17T10:52:21.084Z,35.46
2022-08-17T10:54:49.091Z,35.61
2022-08-17T10:57:33.736Z,35.61
2022-08-17T11:00:03.059Z,35.54
2022-08-17T11:02:39.328Z,35.65
2022-08-17T11:05:14.701Z,35.77
2022-08-17T11:08:01.649Z,35.89
2022-08-17T11:10:42.094Z,36.25
2022-08-17T11:13:37.693Z,36.81
2022-08-17T11:16:13.016Z,37.32
2022-08-17T11:18:50.711Z,37.80
2022-08-17T11:21:42.253Z,37.65
2022-08-17T11:24:33.877Z,37.18
2022-08-17T11:27:02.930Z,36.82
2022-08-17T11:30:01.831Z,36.27
2022-08-17T11:32:31.321Z,35.77
2022-08-17T11:35:22.714Z,35.18
2022-08-17T11:38:15.942Z,34.74
2022-08-17T11:41:01.015Z,34.38
2022-08-17T11:44:04.767Z,34.15
2022-08-17T11:47:09.268Z,34.11
2022-08-17T11:50:00.375Z,34.15
2022-08-17T11:52:45.987Z,34.75
2022-08-17T11:55:39.641Z,35.53
2022-08-17T11:58:30.330Z,35.82
2022-08-17T12:01:02.304Z,36.30
2022-08-17T12:03:31.905Z,36.34
2022-08-17T12:06:30.991Z,35.98
2022-08-17T12:09:34.508Z,35.58
2022-08-17T12:12:14.253Z,35.36
2022-08-17T12:17:41.030Z,36.27
2022-08-17T12:20:23.373Z,38.33
2022-08-17T12:23:00.973Z,39.56
2022-08-17T12:25:55.386Z,39.79
2022-08-17T12:28:28.150Z,39.09
2022-08-17T12:30:59.645Z,38.26
2022-08-17T12:33:28.893Z,37.32
2022-08-17T12:36:05.196Z,36.43
2022-08-17T12:38:35.005Z,35.67
2022-08-17T12:41:22.855Z,35.02
2022-08-17T12:44:04.259Z,34.42
2022-08-17T12:46:35.778Z,34.00
2022-08-17T12:49:19.528Z,33.60
2022-08-17T12:51:47.311Z,33.33
2022-08-17T12:54:57.173Z,33.04
2022-08-17T12:57:33.556Z,32.88
2022-08-17T13:00:09.454Z,32.76
2022-08-17T13:02:53.301Z,32.75
2022-08-17T13:05:41.617Z,32.76
2022-08-17T13:08:39.719Z,32.84
2022-08-17T13:11:26.470Z,32.89
2022-08-17T13:13:56.474Z,33.01
2022-08-17T13:16:26.572Z,33.05
2022-08-17T13:19:12.707Z,33.04
2022-08-17T13:21:46.037Z,33.02
2022-08-17T13:24:18.408Z,32.96
2022-08-17T13:26:51.697Z,32.84
2022-08-17T13:29:39.717Z,32.69
2022-08-17T13:32:13.209Z,32.54
2022-08-17T13:35:04.690Z,32.36
2022-08-17T13:37:32.741Z,32.20
2022-08-17T13:40:11.436Z,32.00
2022-08-17T13:42:51.843Z,31.87
2022-08-17T13:45:35.326Z,31.81
2022-08-17T13:48:13.804Z,31.77
2022-08-17T13:50:56.025Z,31.74
2022-08-17T13:53:31.301Z,31.71
2022-08-17T13:56:07.330Z,31.69
2022-08-17T13:59:00.075Z,31.68
2022-08-17T14:01:41.840Z,31.63
2022-08-17T14:04:18.392Z,31.60
2022-08-17T14:07:08.241Z,31.59
2022-08-17T14:09:39.657Z,31.59
2022-08-17T14:12:13.593Z,31.60
2022-08-17T14:14:40.676Z,31.60
2022-08-17T14:17:07.869Z,31.59
2022-08-17T14:19:36.485Z,31.54
2022-08-17T14:22:04.912Z,31.46
2022-08-17T14:24:34.511Z,31.39
2022-08-17T14:27:03.514Z,31.36
2022-08-17T14:29:31.936Z,31.40
2022-08-17T14:32:04.286Z,31.46
2022-08-17T14:34:30.727Z,31.46
2022-08-17T14:36:57.193Z,31.52
2022-08-17T14:39:23.608Z,31.58
2022-08-17T14:41:50.122Z,31.64
2022-08-17T14:44:16.981Z,31.66
2022-08-17T14:46:44.667Z,31.67
2022-08-17T14:49:13.345Z,31.72
2022-08-17T14:51:43.724Z,31.74
2022-08-17T14:54:11.822Z,31.77
2022-08-17T14:57:08.645Z,31.79
2022-08-17T14:59:44.794Z,31.76
2022-08-17T15:02:11.621Z,31.71
2022-08-17T15:04:41.879Z,31.62
2022-08-17T15:07:11.524Z,31.51
2022-08-17T15:09:38.049Z,31.43
2022-08-17T15:12:06.488Z,31.36
2022-08-17T15:14:35.349Z,31.30
2022-08-17T15:17:03.621Z,31.27
2022-08-17T15:19:30.257Z,31.26
2022-08-17T15:21:56.699Z,31.23
2022-08-17T15:24:23.324Z,31.25
2022-08-17T15:26:49.847Z,31.26
2022-08-17T15:29:16.266Z,31.23
2022-08-17T15:31:43.207Z,31.14
2022-08-17T15:34:09.654Z,31.11
2022-08-17T15:36:36.218Z,31.09
2022-08-17T15:39:03.516Z,31.06
2022-08-17T15:41:29.997Z,31.03
2022-08-17T15:43:56.840Z,30.98
2022-08-17T15:46:25.614Z,30.98
2022-08-17T15:48:56.492Z,30.98
2022-08-17T15:51:32.318Z,30.97
2022-08-17T15:54:18.871Z,31.00
2022-08-17T15:56:49.431Z,31.07
2022-08-17T15:59:15.886Z,31.04
2022-08-17T16:03:14.774Z,31.04
2022-08-17T16:04:30.947Z,31.02
2022-08-17T16:06:59.456Z,30.99
2022-08-17T16:09:25.890Z,30.95
2022-08-17T16:11:55.288Z,30.91
2022-08-17T16:14:22.808Z,30.85
2022-08-17T16:16:50.608Z,30.80
2022-08-17T16:19:17.079Z,30.73
2022-08-17T16:21:43.649Z,30.71
2022-08-17T16:24:13.354Z,30.67
2022-08-17T16:26:41.871Z,30.65
2022-08-17T16:29:08.695Z,30.60
2022-08-17T16:31:36.291Z,30.55
2022-08-17T16:34:17.766Z,30.50
2022-08-17T16:36:54.614Z,30.49
2022-08-17T16:39:22.944Z,30.45
2022-08-17T16:41:50.253Z,30.40
2022-08-17T16:44:19.283Z,30.34
2022-08-17T16:46:47.256Z,30.29
2022-08-17T16:49:24.438Z,30.24
2022-08-17T16:52:02.943Z,30.15
2022-08-17T16:54:29.325Z,30.09
2022-08-17T16:56:55.842Z,30.01
2022-08-17T16:59:31.146Z,29.94
2022-08-17T17:02:04.700Z,29.87
2022-08-17T17:04:35.079Z,29.81
2022-08-17T17:07:25.595Z,29.77
2022-08-17T17:09:55.385Z,29.73
2022-08-17T17:13:02.970Z,29.67
2022-08-17T17:15:10.614Z,29.64
2022-08-17T17:17:38.936Z,29.58
2022-08-17T17:20:11.637Z,29.53
2022-08-17T17:22:47.795Z,29.49
2022-08-17T17:25:29.387Z,29.48
2022-08-17T17:28:26.823Z,29.43
2022-08-17T17:31:23.644Z,29.38
2022-08-17T17:33:55.713Z,29.31
2022-08-17T17:36:44.763Z,29.21
2022-08-17T17:39:32.139Z,29.14
2022-08-17T17:42:02.471Z,29.06
2022-08-17T17:44:34.341Z,28.99
2022-08-17T17:47:02.757Z,28.95
2022-08-17T17:49:41.920Z,28.91
2022-08-17T17:52:30.230Z,28.90
2022-08-17T17:55:42.310Z,28.84
2022-08-17T17:58:39.253Z,28.80
2022-08-17T18:01:50.561Z,28.73
2022-08-17T18:04:40.636Z,28.65
2022-08-17T18:07:18.023Z,28.61
2022-08-17T18:10:19.411Z,28.54
2022-08-17T18:13:32.632Z,28.48
2022-08-17T18:16:00.896Z,28.46
2022-08-17T18:18:37.651Z,28.42
2022-08-17T18:21:19.208Z,28.39
2022-08-17T18:23:48.147Z,28.36
2022-08-17T18:26:36.886Z,28.32
2022-08-17T18:29:21.209Z,28.21
2022-08-17T18:31:47.996Z,28.04
2022-08-17T18:37:26.427Z,27.67
2022-08-17T18:39:52.971Z,27.56
2022-08-17T18:42:28.148Z,27.65
2022-08-17T18:44:55.481Z,27.71
2022-08-17T18:47:28.080Z,27.62
2022-08-17T18:49:58.790Z,27.01
2022-08-17T18:52:32.975Z,26.46
2022-08-17T18:55:12.179Z,26.08
2022-08-17T18:57:52.644Z,25.94
2022-08-17T19:00:40.309Z,25.88
2022-08-17T19:03:15.928Z,25.67
2022-08-17T19:05:45.974Z,25.54
2022-08-17T19:08:18.356Z,25.61
2022-08-17T19:10:47.439Z,25.71
2022-08-17T19:13:23.948Z,25.77
2022-08-17T19:16:13.814Z,25.82
2022-08-17T19:18:54.493Z,25.82
2022-08-17T19:21:41.392Z,25.80
2022-08-17T19:24:19.343Z,25.81
2022-08-17T19:27:00.276Z,25.87
2022-08-17T19:29:41.563Z,25.90
2022-08-17T19:32:10.561Z,25.90
2022-08-17T19:34:38.942Z,25.90
2022-08-17T19:37:16.398Z,25.90
2022-08-17T19:40:10.101Z,25.87
2022-08-17T19:42:47.392Z,25.90
2022-08-17T19:45:40.033Z,25.88
2022-08-17T19:48:21.489Z,25.86
2022-08-17T19:50:56.440Z,25.85
2022-08-17T19:54:06.349Z,25.83
2022-08-17T19:56:44.204Z,25.82
2022-08-17T19:59:28.713Z,25.78
2022-08-17T20:02:37.391Z,25.74
2022-08-17T20:05:15.031Z,25.74
2022-08-17T20:07:53.995Z,25.76
2022-08-17T20:10:27.015Z,25.74
2022-08-17T20:12:56.162Z,25.76
2022-08-17T20:15:30.619Z,25.74
2022-08-17T20:17:59.826Z,25.73
2022-08-17T20:20:58.818Z,25.68
2022-08-17T20:23:51.543Z,25.65
2022-08-17T20:26:26.895Z,25.63
2022-08-17T20:29:14.501Z,25.61
2022-08-17T20:31:51.616Z,25.60
2022-08-17T20:34:30.971Z,25.57
2022-08-17T20:37:26.252Z,25.58
2022-08-17T20:39:52.801Z,25.58
2022-08-17T20:42:22.246Z,25.56
2022-08-17T20:44:57.880Z,25.56
2022-08-17T20:48:15.313Z,25.54
2022-08-17T20:50:39.887Z,25.57
2022-08-17T20:53:10.040Z,25.56
2022-08-17T20:55:36.422Z,25.54
2022-08-17T20:58:24.603Z,25.54
2022-08-17T21:00:56.671Z,25.54
2022-08-17T21:03:23.350Z,25.52
2022-08-17T21:06:16.820Z,25.48
2022-08-17T21:08:53.284Z,25.44
2022-08-17T21:11:56.833Z,25.41
2022-08-17T21:14:41.671Z,25.38
2022-08-17T21:17:18.231Z,25.36
2022-08-17T21:20:11.029Z,25.35
2022-08-17T21:23:00.897Z,25.36
2022-08-17T21:25:49.376Z,25.31
2022-08-17T21:28:59.877Z,25.28
2022-08-17T21:31:45.971Z,25.24
2022-08-17T21:34:16.844Z,25.24
2022-08-17T21:36:48.019Z,25.21
2022-08-17T21:39:19.334Z,25.19
2022-08-17T21:41:57.993Z,25.19
2022-08-17T21:44:34.903Z,25.17
2022-08-17T21:47:21.917Z,25.15
2022-08-17T21:49:48.393Z,25.15
2022-08-17T21:52:17.791Z,25.13
2022-08-17T21:54:53.830Z,25.12
2022-08-17T21:57:27.233Z,25.11
2022-08-17T21:59:59.877Z,25.11
2022-08-17T22:02:33.738Z,25.08
2022-08-17T22:05:13.864Z,25.08
2022-08-17T22:07:50.796Z,25.09
2022-08-17T22:10:37.378Z,25.03
2022-08-17T22:13:16.431Z,25.03
2022-08-17T22:15:48.348Z,24.98
2022-08-17T22:18:21.734Z,24.95
2022-08-17T22:20:54.740Z,24.93
2022-08-17T22:24:01.160Z,24.89
2022-08-17T22:27:05.865Z,24.89
2022-08-17T22:29:47.283Z,24.87
2022-08-17T22:32:37.626Z,24.82
2022-08-17T22:35:18.915Z,24.79
2022-08-17T22:37:45.753Z,24.75
2022-08-17T22:40:24.536Z,24.69
2022-08-17T22:42:51.079Z,24.67
2022-08-17T22:45:17.563Z,24.62
2022-08-17T22:47:48.689Z,24.60
2022-08-17T22:50:27.008Z,24.57
2022-08-17T22:53:19.048Z,24.55
2022-08-17T22:56:09.487Z,24.52
2022-08-17T22:59:03.094Z,24.49
2022-08-17T23:01:33.114Z,24.47
2022-08-17T23:04:05.811Z,24.44
2022-08-17T23:06:34.549Z,24.42
2022-08-17T23:09:04.191Z,24.37
2022-08-17T23:11:48.967Z,24.32
2022-08-17T23:14:19.704Z,24.32
2022-08-17T23:16:47.379Z,24.29
2022-08-17T23:19:16.463Z,24.26
2022-08-17T23:21:44.769Z,24.26
2022-08-17T23:24:16.933Z,24.21
2022-08-17T23:26:43.352Z,24.21
2022-08-17T23:29:09.979Z,24.19
2022-08-17T23:31:37.568Z,24.16
2022-08-17T23:34:09.001Z,24.14
2022-08-17T23:36:35.963Z,24.12
2022-08-17T23:39:02.355Z,24.09
2022-08-17T23:41:33.822Z,24.06
2022-08-17T23:44:01.108Z,24.06
2022-08-17T23:46:27.617Z,24.04
2022-08-17T23:48:54.185Z,24.02
2022-08-17T23:51:26.770Z,24.01
2022-08-17T23:54:05.661Z,23.99
2022-08-17T23:56:37.448Z,24.01
2022-08-17T23:59:03.842Z,24.01
